createdAt,value
2023-05-02T00:00:46.082Z,8.90
2023-05-02T00:03:34.608Z,7.80
2023-05-02T00:06:22.310Z,8.20
2023-05-02T00:09:11.631Z,7.90
2023-05-02T00:11:59.748Z,7.43
2023-05-02T00:14:47.262Z,7.90
2023-05-02T00:17:34.699Z,7.57
2023-05-02T00:20:22.307Z,7.45
2023-05-02T00:23:09.707Z,7.10
2023-05-02T00:25:58.574Z,7.80
2023-05-02T00:28:46.131Z,9.48
2023-05-02T00:31:33.712Z,7.15
2023-05-02T00:34:21.419Z,7.53
2023-05-02T00:37:09.417Z,8.00
2023-05-02T00:39:57.212Z,8.38
2023-05-02T00:42:46.302Z,9.05
2023-05-02T00:45:33.857Z,7.05
2023-05-02T00:48:21.840Z,7.57
2023-05-02T00:51:12.230Z,7.60
2023-05-02T00:54:01.675Z,8.07
2023-05-02T00:56:49.612Z,8.07
2023-05-02T00:59:39.127Z,7.75
2023-05-02T01:02:36.714Z,7.45
2023-05-02T01:05:29.388Z,7.47
2023-05-02T01:08:27.156Z,6.28
2023-05-02T01:11:20.092Z,7.78
2023-05-02T01:14:11.598Z,7.05
2023-05-02T01:17:05.704Z,6.90
2023-05-02T01:19:57.641Z,7.78
2023-05-02T01:22:46.570Z,8.50
2023-05-02T01:25:53.945Z,8.52
2023-05-02T01:31:51.056Z,10.90
2023-05-02T01:34:41.764Z,10.10
2023-05-02T01:37:32.412Z,10.30
2023-05-02T01:40:22.962Z,9.65
2023-05-02T01:43:12.254Z,8.50
2023-05-02T01:46:04.323Z,9.77
2023-05-02T01:48:53.962Z,8.98
2023-05-02T01:51:47.210Z,9.88
2023-05-02T01:54:37.821Z,8.82
2023-05-02T01:57:26.521Z,8.13
2023-05-02T02:00:16.824Z,9.15
2023-05-02T02:03:08.624Z,8.32
2023-05-02T02:05:57.818Z,8.55
2023-05-02T02:08:45.411Z,7.57
2023-05-02T02:11:38.783Z,7.93
2023-05-02T02:14:29.220Z,8.30
2023-05-02T02:17:23.394Z,8.30
2023-05-02T02:20:14.578Z,7.72
2023-05-02T02:23:04.468Z,8.23
2023-05-02T02:25:53.523Z,8.68
2023-05-02T02:28:41.449Z,8.35
2023-05-02T02:31:32.849Z,8.43
2023-05-02T02:34:21.043Z,8.57
2023-05-02T02:37:17.850Z,8.95
2023-05-02T02:40:13.716Z,10.07
2023-05-02T02:43:09.306Z,8.98
2023-05-02T02:46:05.289Z,8.82
2023-05-02T02:49:00.030Z,9.68
2023-05-02T02:51:55.159Z,8.52
2023-05-02T02:54:48.096Z,8.82
2023-05-02T02:57:41.153Z,8.63
2023-05-02T03:00:30.003Z,9.23
2023-05-02T03:03:19.018Z,8.32
2023-05-02T03:06:06.797Z,8.35
2023-05-02T03:08:54.429Z,10.55
2023-05-02T03:11:49.455Z,9.10
2023-05-02T03:14:37.577Z,9.18
2023-05-02T03:17:26.377Z,9.27
2023-05-02T03:20:14.140Z,8.60
2023-05-02T03:23:02.053Z,7.93
2023-05-02T03:25:49.538Z,8.48
2023-05-02T03:28:46.663Z,9.00
2023-05-02T03:31:38.406Z,9.67
2023-05-02T03:34:26.665Z,9.23
2023-05-02T03:37:15.240Z,8.75
2023-05-02T03:40:03.772Z,8.50
2023-05-02T03:42:51.258Z,7.72
2023-05-02T03:45:48.138Z,8.02
2023-05-02T03:48:37.579Z,8.88
2023-05-02T03:51:24.970Z,8.75
2023-05-02T03:54:15.854Z,7.60
2023-05-02T03:57:04.865Z,7.93
2023-05-02T03:59:53.876Z,8.25
2023-05-02T04:02:49.208Z,7.90
2023-05-02T04:05:40.632Z,7.72
2023-05-02T04:08:28.968Z,7.43
2023-05-02T04:11:17.696Z,7.38
2023-05-02T04:14:05.515Z,7.15
2023-05-02T04:16:54.092Z,7.63
2023-05-02T04:19:55.437Z,9.10
2023-05-02T04:22:48.006Z,6.55
2023-05-02T04:25:35.690Z,7.65
2023-05-02T04:28:24.754Z,6.93
2023-05-02T04:31:13.294Z,6.75
2023-05-02T04:34:01.178Z,6.63
2023-05-02T04:36:55.105Z,6.32
2023-05-02T04:39:44.934Z,6.50
2023-05-02T04:42:38.143Z,6.82
2023-05-02T04:45:35.787Z,5.82
2023-05-02T04:48:26.543Z,5.40
2023-05-02T04:51:16.813Z,6.03
2023-05-02T04:54:07.698Z,8.15
2023-05-02T04:56:55.324Z,6.07
2023-05-02T04:59:44.216Z,7.28
2023-05-02T05:02:34.861Z,6.93
2023-05-02T05:05:23.304Z,8.52
2023-05-02T05:08:11.332Z,6.80
2023-05-02T05:11:01.438Z,6.43
2023-05-02T05:13:49.149Z,5.65
2023-05-02T05:16:37.701Z,5.72
2023-05-02T05:19:28.057Z,5.30
2023-05-02T05:22:17.033Z,6.10
2023-05-02T05:25:06.275Z,5.63
2023-05-02T05:27:55.947Z,5.75
2023-05-02T05:30:44.056Z,5.53
2023-05-02T05:33:34.578Z,7.03
2023-05-02T05:36:23.932Z,5.80
2023-05-02T05:39:12.014Z,6.10
2023-05-02T05:42:02.705Z,5.88
2023-05-02T05:44:53.069Z,10.05
2023-05-02T05:47:41.052Z,9.98
2023-05-02T05:50:29.015Z,9.23
2023-05-02T05:53:16.879Z,6.90
2023-05-02T05:56:10.772Z,13.45
2023-05-02T05:59:00.288Z,11.50
2023-05-02T06:01:49.631Z,7.45
2023-05-02T06:04:40.096Z,6.50
2023-05-02T06:07:27.878Z,6.32
2023-05-02T06:10:15.343Z,5.75
2023-05-02T06:13:04.148Z,6.45
2023-05-02T06:15:55.892Z,5.55
2023-05-02T06:18:45.143Z,5.80
2023-05-02T06:21:37.299Z,5.15
2023-05-02T06:24:24.787Z,5.80
2023-05-02T06:27:12.513Z,5.70
2023-05-02T06:30:00.526Z,9.73
2023-05-02T06:32:48.440Z,10.68
2023-05-02T06:35:37.271Z,12.20
2023-05-02T06:38:24.996Z,8.32
2023-05-02T06:41:17.215Z,6.05
2023-05-02T06:44:06.259Z,5.32
2023-05-02T06:46:53.887Z,5.68
2023-05-02T06:49:41.603Z,5.38
2023-05-02T06:52:31.117Z,5.30
2023-05-02T06:55:18.913Z,5.20
2023-05-02T06:58:07.120Z,5.40
2023-05-02T07:00:54.788Z,5.30
2023-05-02T07:03:42.279Z,5.80
2023-05-02T07:06:30.141Z,5.65
2023-05-02T07:09:19.287Z,5.82
2023-05-02T07:12:07.256Z,5.93
2023-05-02T07:14:55.041Z,5.22
2023-05-02T07:17:42.528Z,6.10
2023-05-02T07:20:30.089Z,5.25
2023-05-02T07:23:17.897Z,5.05
2023-05-02T07:26:07.405Z,6.25
2023-05-02T07:28:55.030Z,5.30
2023-05-02T07:31:42.824Z,5.20
2023-05-02T07:34:31.020Z,6.18
2023-05-02T07:37:18.637Z,5.00
2023-05-02T07:40:08.091Z,5.95
2023-05-02T07:42:56.905Z,5.55
2023-05-02T07:45:44.673Z,5.78
2023-05-02T07:48:32.361Z,5.93
2023-05-02T07:51:21.539Z,5.13
2023-05-02T07:54:16.935Z,5.15
2023-05-02T07:57:05.339Z,5.60
2023-05-02T07:59:57.254Z,6.00
2023-05-02T08:02:45.566Z,4.53
2023-05-02T08:05:34.087Z,5.47
2023-05-02T08:08:21.742Z,5.35
2023-05-02T08:11:09.159Z,4.60
2023-05-02T08:13:57.235Z,5.78
2023-05-02T08:16:46.749Z,4.70
2023-05-02T08:19:34.526Z,5.75
2023-05-02T08:22:22.032Z,5.68
2023-05-02T08:25:09.787Z,5.78
2023-05-02T08:27:57.510Z,5.88
2023-05-02T08:30:45.440Z,5.70
2023-05-02T08:33:34.718Z,5.57
2023-05-02T08:36:22.359Z,5.78
2023-05-02T08:39:10.746Z,5.47
2023-05-02T08:41:58.777Z,5.43
2023-05-02T08:44:46.291Z,5.72
2023-05-02T08:47:34.070Z,5.50
2023-05-02T08:50:23.824Z,5.47
2023-05-02T08:53:12.079Z,5.40
2023-05-02T08:56:00.478Z,5.72
2023-05-02T08:58:47.965Z,5.80
2023-05-02T09:01:37.628Z,5.18
2023-05-02T09:04:29.952Z,5.53
2023-05-02T09:07:19.083Z,5.72
2023-05-02T09:10:09.054Z,4.55
2023-05-02T09:12:56.440Z,5.40
2023-05-02T09:15:43.867Z,6.07
2023-05-02T09:18:33.097Z,5.82
2023-05-02T09:21:22.664Z,6.40
2023-05-02T09:24:19.595Z,5.75
2023-05-02T09:27:07.282Z,4.72
2023-05-02T09:30:20.070Z,6.07
2023-05-02T09:33:08.142Z,6.22
2023-05-02T09:35:56.210Z,6.38
2023-05-02T09:38:44.141Z,5.10
2023-05-02T09:41:41.830Z,5.63
2023-05-02T09:44:39.302Z,5.20
2023-05-02T09:47:27.729Z,5.45
2023-05-02T09:50:34.805Z,5.70
2023-05-02T09:53:23.112Z,6.15
2023-05-02T09:56:11.093Z,6.55
2023-05-02T09:59:16.092Z,5.93
2023-05-02T10:02:05.529Z,5.93
2023-05-02T10:04:54.664Z,5.45
2023-05-02T10:07:42.832Z,5.68
2023-05-02T10:10:30.492Z,6.20
2023-05-02T10:13:20.817Z,5.90
2023-05-02T10:16:11.597Z,6.00
2023-05-02T10:19:04.873Z,5.30
2023-05-02T10:21:52.570Z,6.32
2023-05-02T10:24:40.993Z,6.68
2023-05-02T10:27:30.414Z,6.07
2023-05-02T10:30:18.473Z,6.75
2023-05-02T10:33:07.625Z,6.93
2023-05-02T10:35:55.374Z,5.85
2023-05-02T10:38:43.375Z,6.20
2023-05-02T10:41:34.614Z,6.50
2023-05-02T10:44:34.203Z,5.95
2023-05-02T10:47:22.618Z,6.00
2023-05-02T10:50:12.175Z,5.93
2023-05-02T10:53:01.442Z,6.25
2023-05-02T10:56:10.010Z,5.65
2023-05-02T10:59:30.082Z,5.43
2023-05-02T11:02:51.890Z,4.70
2023-05-02T11:06:07.476Z,4.90
2023-05-02T11:08:55.355Z,4.40
2023-05-02T11:11:43.994Z,4.80
2023-05-02T11:14:50.912Z,4.82
2023-05-02T11:18:02.694Z,5.38
2023-05-02T11:20:51.658Z,4.85
2023-05-02T11:23:40.526Z,5.05
2023-05-02T11:26:28.666Z,5.80
2023-05-02T11:29:53.031Z,5.30
2023-05-02T11:33:18.472Z,5.53
2023-05-02T11:36:08.343Z,5.90
2023-05-02T11:38:56.102Z,5.95
2023-05-02T11:41:44.315Z,6.18
2023-05-02T11:44:32.287Z,6.10
2023-05-02T11:47:19.779Z,6.57
2023-05-02T11:50:09.558Z,7.10
2023-05-02T11:52:58.644Z,6.72
2023-05-02T11:55:47.957Z,6.40
2023-05-02T11:58:35.633Z,6.40
2023-05-02T12:01:23.194Z,6.15
2023-05-02T12:04:11.905Z,6.82
2023-05-02T12:06:59.870Z,6.82
2023-05-02T12:09:55.487Z,6.13
2023-05-02T12:12:45.645Z,6.80
2023-05-02T12:15:33.873Z,6.25
2023-05-02T12:18:24.317Z,5.88
2023-05-02T12:21:12.268Z,5.50
2023-05-02T12:24:00.368Z,6.18
2023-05-02T12:26:51.193Z,6.47
2023-05-02T12:29:41.457Z,6.13
2023-05-02T12:32:30.983Z,5.07
2023-05-02T12:35:24.009Z,6.35
2023-05-02T12:38:13.879Z,5.82
2023-05-02T12:41:01.633Z,4.70
2023-05-02T12:43:52.389Z,4.40
2023-05-02T12:46:58.480Z,3.88
2023-05-02T12:49:52.925Z,4.22
2023-05-02T12:52:51.369Z,4.32
2023-05-02T12:55:39.359Z,4.30
2023-05-02T12:58:28.649Z,4.82
2023-05-02T13:01:17.854Z,4.47
2023-05-02T13:04:05.882Z,3.90
2023-05-02T13:06:53.642Z,5.18
2023-05-02T13:09:41.082Z,4.72
2023-05-02T13:12:29.625Z,4.07
2023-05-02T13:15:16.991Z,3.90
2023-05-02T13:18:06.038Z,4.30
2023-05-02T13:20:54.053Z,4.50
2023-05-02T13:23:41.570Z,4.30
2023-05-02T13:26:29.225Z,4.30
2023-05-02T13:29:16.459Z,5.00
2023-05-02T13:32:04.484Z,3.45
2023-05-02T13:34:53.440Z,2.83
2023-05-02T13:37:42.378Z,4.35
2023-05-02T13:40:29.846Z,3.50
2023-05-02T13:43:17.130Z,3.55
2023-05-02T13:46:04.919Z,3.70
2023-05-02T13:48:52.568Z,5.82
2023-05-02T13:51:41.917Z,4.82
2023-05-02T13:54:29.583Z,3.92
2023-05-02T13:57:17.007Z,3.85
2023-05-02T14:00:05.443Z,4.03
2023-05-02T14:02:53.086Z,3.28
2023-05-02T14:05:43.762Z,2.90
2023-05-02T14:08:32.744Z,2.67
2023-05-02T14:11:20.551Z,3.53
2023-05-02T14:14:09.087Z,4.50
2023-05-02T14:16:56.806Z,6.00
2023-05-02T14:19:44.134Z,5.43
2023-05-02T14:22:31.819Z,5.53
2023-05-02T14:25:20.649Z,5.97
2023-05-02T14:28:08.435Z,5.63
2023-05-02T14:30:56.124Z,4.68
2023-05-02T14:33:43.609Z,4.93
2023-05-02T14:36:31.792Z,4.63
2023-05-02T14:39:19.341Z,3.50
2023-05-02T14:42:08.666Z,3.10
2023-05-02T14:44:59.547Z,4.55
2023-05-02T14:47:47.487Z,3.38
2023-05-02T14:50:35.179Z,3.13
2023-05-02T14:53:22.543Z,3.17
2023-05-02T14:56:15.866Z,2.10
2023-05-02T14:59:04.575Z,2.58
2023-05-02T15:01:53.592Z,1.98
2023-05-02T15:04:41.157Z,2.33
2023-05-02T15:07:28.831Z,2.33
2023-05-02T15:10:16.175Z,2.10
2023-05-02T15:13:03.953Z,2.20
2023-05-02T15:15:53.875Z,2.17
2023-05-02T15:18:41.684Z,1.90
2023-05-02T15:21:29.310Z,2.60
2023-05-02T15:24:16.760Z,2.35
2023-05-02T15:27:04.196Z,3.28
2023-05-02T15:29:51.862Z,2.47
2023-05-02T15:32:40.998Z,2.70
2023-05-02T15:35:29.005Z,4.10
2023-05-02T15:38:16.665Z,3.22
2023-05-02T15:41:04.443Z,3.67
2023-05-02T15:43:52.533Z,3.17
2023-05-02T15:46:41.128Z,3.53
2023-05-02T15:49:33.091Z,3.00
2023-05-02T15:52:20.823Z,3.75
2023-05-02T15:55:08.511Z,3.22
2023-05-02T15:57:56.276Z,3.30
2023-05-02T16:00:44.015Z,3.08
2023-05-02T16:03:32.243Z,3.22
2023-05-02T16:06:21.041Z,2.88
2023-05-02T16:09:08.758Z,3.42
2023-05-02T16:11:56.081Z,3.35
2023-05-02T16:14:43.424Z,3.85
2023-05-02T16:17:30.835Z,3.63
2023-05-02T16:20:18.789Z,3.28
2023-05-02T16:23:08.314Z,3.17
2023-05-02T16:25:58.833Z,3.28
2023-05-02T16:28:46.193Z,3.25
2023-05-02T16:31:33.714Z,3.42
2023-05-02T16:34:21.024Z,3.95
2023-05-02T16:37:09.287Z,4.03
2023-05-02T16:39:58.256Z,3.92
2023-05-02T16:42:45.959Z,3.72
2023-05-02T16:45:33.433Z,4.85
2023-05-02T16:48:22.948Z,5.13
2023-05-02T16:51:10.539Z,5.85
2023-05-02T16:53:58.349Z,6.65
2023-05-02T16:56:47.624Z,6.18
2023-05-02T16:59:35.383Z,6.93
2023-05-02T17:02:22.919Z,6.47
2023-05-02T17:05:11.875Z,6.47
2023-05-02T17:07:59.643Z,6.63
2023-05-02T17:10:50.548Z,6.53
2023-05-02T17:13:39.256Z,7.30
2023-05-02T17:16:26.887Z,6.65
2023-05-02T17:19:14.745Z,6.18
2023-05-02T17:22:04.948Z,6.55
2023-05-02T17:24:54.234Z,6.97
2023-05-02T17:27:42.216Z,8.07
2023-05-02T17:30:32.214Z,8.18
2023-05-02T17:33:19.644Z,7.45
2023-05-02T17:36:07.572Z,7.72
2023-05-02T17:38:55.180Z,7.45
2023-05-02T17:41:42.924Z,7.38
2023-05-02T17:44:31.531Z,6.05
2023-05-02T17:47:22.217Z,7.22
2023-05-02T17:50:10.952Z,8.25
2023-05-02T17:52:58.770Z,8.32
2023-05-02T17:55:46.489Z,7.07
2023-05-02T17:58:35.484Z,7.57
2023-05-02T18:01:23.217Z,6.97
2023-05-02T18:04:12.988Z,6.88
2023-05-02T18:07:00.884Z,7.18
2023-05-02T18:09:48.821Z,6.13
2023-05-02T18:12:36.370Z,6.40
2023-05-02T18:15:24.454Z,7.05
2023-05-02T18:18:12.238Z,10.07
2023-05-02T18:21:00.946Z,10.70
2023-05-02T18:23:48.256Z,12.20
2023-05-02T18:26:35.644Z,11.43
2023-05-02T18:29:23.449Z,11.80
2023-05-02T18:32:11.335Z,11.68
2023-05-02T18:34:58.801Z,10.85
2023-05-02T18:37:47.667Z,11.27
2023-05-02T18:40:35.605Z,12.50
2023-05-02T18:43:23.272Z,11.98
2023-05-02T18:46:11.999Z,10.35
2023-05-02T18:49:00.374Z,10.75
2023-05-02T18:51:48.178Z,9.02
2023-05-02T18:54:37.702Z,9.13
2023-05-02T18:57:25.518Z,7.75
2023-05-02T19:00:14.242Z,9.75
2023-05-02T19:03:01.896Z,7.93
2023-05-02T19:05:50.284Z,7.97
2023-05-02T19:08:38.225Z,7.90
2023-05-02T19:11:27.404Z,8.70
2023-05-02T19:14:15.099Z,10.18
2023-05-02T19:17:04.961Z,10.57
2023-05-02T19:19:53.281Z,9.32
2023-05-02T19:22:42.676Z,9.18
2023-05-02T19:25:30.095Z,7.82
2023-05-02T19:28:19.961Z,7.28
2023-05-02T19:31:11.773Z,6.68
2023-05-02T19:34:00.198Z,6.30
2023-05-02T19:36:48.107Z,6.28
2023-05-02T19:39:35.431Z,6.45
2023-05-02T19:42:22.821Z,5.60
2023-05-02T19:45:13.939Z,5.47
2023-05-02T19:48:01.727Z,6.28
2023-05-02T19:50:49.347Z,5.20
2023-05-02T19:53:38.191Z,5.85
2023-05-02T19:56:27.020Z,6.10
2023-05-02T19:59:14.630Z,5.97
2023-05-02T20:02:03.583Z,5.97
2023-05-02T20:04:51.251Z,6.38
2023-05-02T20:07:38.944Z,7.07
2023-05-02T20:10:26.862Z,5.63
2023-05-02T20:13:14.239Z,6.68
2023-05-02T20:16:01.998Z,6.60
2023-05-02T20:18:51.189Z,6.15
2023-05-02T20:21:40.196Z,6.18
2023-05-02T20:24:27.679Z,5.72
2023-05-02T20:27:15.383Z,7.20
2023-05-02T20:30:03.355Z,6.80
2023-05-02T20:32:51.352Z,7.60
2023-05-02T20:35:40.222Z,7.00
2023-05-02T20:38:28.132Z,7.72
2023-05-02T20:41:16.243Z,6.80
2023-05-02T20:44:04.579Z,7.18
2023-05-02T20:46:52.782Z,7.00
2023-05-02T20:49:40.497Z,6.70
2023-05-02T20:52:29.200Z,6.80
2023-05-02T20:55:18.108Z,6.38
2023-05-02T20:58:05.850Z,6.32
2023-05-02T21:00:54.147Z,6.13
2023-05-02T21:03:41.856Z,5.30
2023-05-02T21:06:31.570Z,4.88
2023-05-02T21:09:20.823Z,4.28
2023-05-02T21:12:08.385Z,3.97
2023-05-02T21:14:55.662Z,4.40
2023-05-02T21:17:43.194Z,4.47
2023-05-02T21:20:30.612Z,4.97
2023-05-02T21:23:18.568Z,4.70
2023-05-02T21:26:08.447Z,5.05
2023-05-02T21:28:56.277Z,5.32
2023-05-02T21:31:43.713Z,5.35
2023-05-02T21:34:31.113Z,4.68
2023-05-02T21:37:18.407Z,5.22
2023-05-02T21:40:07.419Z,4.95
2023-05-02T21:42:56.179Z,5.60
2023-05-02T21:45:47.161Z,5.95
2023-05-02T21:48:35.176Z,5.53
2023-05-02T21:51:22.476Z,5.65
2023-05-02T21:54:09.829Z,5.57
2023-05-02T21:56:57.776Z,5.80
2023-05-02T21:59:46.669Z,5.90
2023-05-02T22:05:58.116Z,6.53
2023-05-02T22:08:45.807Z,5.82
2023-05-02T22:11:33.762Z,5.50
2023-05-02T22:14:27.617Z,6.30
2023-05-02T22:17:22.995Z,6.30
2023-05-02T22:20:13.322Z,6.18
2023-05-02T22:23:01.100Z,6.60
2023-05-02T22:25:48.865Z,6.47
2023-05-02T22:28:36.241Z,5.68
2023-05-02T22:31:23.864Z,5.93
2023-05-02T22:34:12.683Z,6.28
2023-05-02T22:37:00.496Z,6.22
2023-05-02T22:39:48.128Z,6.38
2023-05-02T22:42:35.496Z,6.82
2023-05-02T22:45:23.162Z,6.75
2023-05-02T22:48:11.697Z,7.47
2023-05-02T22:51:01.097Z,6.85
2023-05-02T22:53:49.240Z,7.03
2023-05-02T22:56:37.012Z,7.15
2023-05-02T22:59:24.575Z,6.95
2023-05-02T23:02:12.664Z,6.50
2023-05-02T23:05:00.346Z,6.93
2023-05-02T23:07:49.249Z,6.97
2023-05-02T23:10:36.910Z,7.47
2023-05-02T23:13:24.196Z,7.13
2023-05-02T23:16:11.786Z,7.47
2023-05-02T23:18:59.765Z,6.78
2023-05-02T23:21:48.259Z,6.63
2023-05-02T23:24:37.183Z,5.90
2023-05-02T23:27:25.258Z,5.53
2023-05-02T23:30:13.328Z,5.97
2023-05-02T23:33:01.764Z,5.72
2023-05-02T23:35:49.512Z,6.65
2023-05-02T23:38:37.046Z,5.70
2023-05-02T23:41:26.423Z,6.65
2023-05-02T23:44:14.286Z,6.90
2023-05-02T23:47:02.046Z,7.75
2023-05-02T23:49:49.338Z,7.10
2023-05-02T23:52:36.851Z,6.28
2023-05-02T23:55:24.840Z,4.95
2023-05-02T23:58:13.628Z,5.15
